sensor_id;sensor_type;location;lat;lon;timestamp;temperature;humidity
14101;DHT22;7127;49.372;8.166;2023-09-19T00:00:19;21.80;59.20
14101;DHT22;7127;49.372;8.166;2023-09-19T00:02:52;21.80;59.10
14101;DHT22;7127;49.372;8.166;2023-09-19T00:05:19;21.70;59.10
14101;DHT22;7127;49.372;8.166;2023-09-19T00:07:49;21.70;59.00
14101;DHT22;7127;49.372;8.166;2023-09-19T00:10:17;21.80;59.10
14101;DHT22;7127;49.372;8.166;2023-09-19T00:12:44;21.80;59.10
14101;DHT22;7127;49.372;8.166;2023-09-19T00:15:11;21.80;59.10
14101;DHT22;7127;49.372;8.166;2023-09-19T00:17:38;21.80;59.70
14101;DHT22;7127;49.372;8.166;2023-09-19T00:20:08;21.80;59.10
14101;DHT22;7127;49.372;8.166;2023-09-19T00:22:39;21.80;59.10
14101;DHT22;7127;49.372;8.166;2023-09-19T00:25:07;21.80;59.00
14101;DHT22;7127;49.372;8.166;2023-09-19T00:27:35;21.80;59.10
14101;DHT22;7127;49.372;8.166;2023-09-19T00:30:05;21.80;59.20
14101;DHT22;7127;49.372;8.166;2023-09-19T00:32:34;21.80;59.20
14101;DHT22;7127;49.372;8.166;2023-09-19T00:35:03;21.80;59.20
14101;DHT22;7127;49.372;8.166;2023-09-19T00:37:32;21.80;59.20
14101;DHT22;7127;49.372;8.166;2023-09-19T00:39:58;21.80;59.20
14101;DHT22;7127;49.372;8.166;2023-09-19T00:42:25;21.90;59.30
14101;DHT22;7127;49.372;8.166;2023-09-19T00:44:53;21.80;59.30
14101;DHT22;7127;49.372;8.166;2023-09-19T00:47:20;21.80;59.30
14101;DHT22;7127;49.372;8.166;2023-09-19T00:49:47;21.80;59.30
14101;DHT22;7127;49.372;8.166;2023-09-19T00:52:16;21.80;59.20
14101;DHT22;7127;49.372;8.166;2023-09-19T00:54:47;21.80;59.20
14101;DHT22;7127;49.372;8.166;2023-09-19T00:57:14;21.70;59.20
14101;DHT22;7127;49.372;8.166;2023-09-19T00:59:43;21.80;59.20
14101;DHT22;7127;49.372;8.166;2023-09-19T01:02:10;21.80;59.20
14101;DHT22;7127;49.372;8.166;2023-09-19T01:04:40;21.80;59.20
14101;DHT22;7127;49.372;8.166;2023-09-19T01:07:07;21.70;59.10
14101;DHT22;7127;49.372;8.166;2023-09-19T01:09:34;21.80;59.20
14101;DHT22;7127;49.372;8.166;2023-09-19T01:12:05;21.80;59.20
14101;DHT22;7127;49.372;8.166;2023-09-19T01:14:40;21.80;59.20
14101;DHT22;7127;49.372;8.166;2023-09-19T01:17:27;21.80;59.30
14101;DHT22;7127;49.372;8.166;2023-09-19T01:20:11;21.80;59.30
14101;DHT22;7127;49.372;8.166;2023-09-19T01:22:55;21.80;59.40
14101;DHT22;7127;49.372;8.166;2023-09-19T01:25:41;21.80;59.30
14101;DHT22;7127;49.372;8.166;2023-09-19T01:28:30;21.80;59.30
14101;DHT22;7127;49.372;8.166;2023-09-19T01:31:02;21.90;59.40
14101;DHT22;7127;49.372;8.166;2023-09-19T01:33:53;21.90;59.40
14101;DHT22;7127;49.372;8.166;2023-09-19T01:36:22;21.90;59.60
14101;DHT22;7127;49.372;8.166;2023-09-19T01:38:49;21.90;59.30
14101;DHT22;7127;49.372;8.166;2023-09-19T01:41:21;22.00;59.50
14101;DHT22;7127;49.372;8.166;2023-09-19T01:43:52;21.90;59.40
14101;DHT22;7127;49.372;8.166;2023-09-19T01:46:25;21.80;59.30
14101;DHT22;7127;49.372;8.166;2023-09-19T01:49:00;22.00;59.40
14101;DHT22;7127;49.372;8.166;2023-09-19T01:51:34;21.90;59.20
14101;DHT22;7127;49.372;8.166;2023-09-19T01:54:09;21.90;59.10
14101;DHT22;7127;49.372;8.166;2023-09-19T01:56:40;22.00;59.10
14101;DHT22;7127;49.372;8.166;2023-09-19T01:59:14;22.00;59.10
14101;DHT22;7127;49.372;8.166;2023-09-19T02:01:45;22.00;59.10
14101;DHT22;7127;49.372;8.166;2023-09-19T02:04:13;21.90;59.00
14101;DHT22;7127;49.372;8.166;2023-09-19T02:06:40;21.90;59.00
14101;DHT22;7127;49.372;8.166;2023-09-19T02:09:07;21.90;58.90
14101;DHT22;7127;49.372;8.166;2023-09-19T02:11:34;22.00;58.90
14101;DHT22;7127;49.372;8.166;2023-09-19T02:14:02;21.80;58.70
14101;DHT22;7127;49.372;8.166;2023-09-19T02:16:30;21.90;58.80
14101;DHT22;7127;49.372;8.166;2023-09-19T02:18:58;21.90;58.80
14101;DHT22;7127;49.372;8.166;2023-09-19T02:21:25;21.80;58.70
14101;DHT22;7127;49.372;8.166;2023-09-19T02:23:54;21.90;58.80
14101;DHT22;7127;49.372;8.166;2023-09-19T02:26:21;21.80;58.70
14101;DHT22;7127;49.372;8.166;2023-09-19T02:28:50;21.80;58.70
14101;DHT22;7127;49.372;8.166;2023-09-19T02:31:18;21.80;58.60
14101;DHT22;7127;49.372;8.166;2023-09-19T02:33:45;21.70;58.60
14101;DHT22;7127;49.372;8.166;2023-09-19T02:36:13;21.60;58.50
14101;DHT22;7127;49.372;8.166;2023-09-19T02:38:42;21.70;58.60
14101;DHT22;7127;49.372;8.166;2023-09-19T02:41:09;21.70;58.40
14101;DHT22;7127;49.372;8.166;2023-09-19T02:43:36;21.70;58.40
14101;DHT22;7127;49.372;8.166;2023-09-19T02:46:03;21.70;58.40
14101;DHT22;7127;49.372;8.166;2023-09-19T02:48:30;21.70;58.40
14101;DHT22;7127;49.372;8.166;2023-09-19T02:50:58;21.70;58.30
14101;DHT22;7127;49.372;8.166;2023-09-19T02:53:26;21.60;58.80
14101;DHT22;7127;49.372;8.166;2023-09-19T02:55:53;21.60;58.10
14101;DHT22;7127;49.372;8.166;2023-09-19T02:58:20;21.60;58.00
14101;DHT22;7127;49.372;8.166;2023-09-19T03:00:47;21.60;58.00
14101;DHT22;7127;49.372;8.166;2023-09-19T03:03:15;21.50;58.50
14101;DHT22;7127;49.372;8.166;2023-09-19T03:05:42;21.50;57.90
14101;DHT22;7127;49.372;8.166;2023-09-19T03:08:12;21.50;57.90
14101;DHT22;7127;49.372;8.166;2023-09-19T03:10:41;21.50;58.60
14101;DHT22;7127;49.372;8.166;2023-09-19T03:13:08;21.50;57.80
14101;DHT22;7127;49.372;8.166;2023-09-19T03:15:36;21.50;57.70
14101;DHT22;7127;49.372;8.166;2023-09-19T03:18:04;21.40;57.50
14101;DHT22;7127;49.372;8.166;2023-09-19T03:20:31;21.40;57.40
14101;DHT22;7127;49.372;8.166;2023-09-19T03:22:58;21.40;57.10
14101;DHT22;7127;49.372;8.166;2023-09-19T03:25:25;21.30;57.10
14101;DHT22;7127;49.372;8.166;2023-09-19T03:27:56;21.30;57.20
14101;DHT22;7127;49.372;8.166;2023-09-19T03:30:23;21.30;57.30
14101;DHT22;7127;49.372;8.166;2023-09-19T03:32:50;21.30;57.30
14101;DHT22;7127;49.372;8.166;2023-09-19T03:35:17;21.30;57.30
14101;DHT22;7127;49.372;8.166;2023-09-19T03:37:44;21.20;57.20
14101;DHT22;7127;49.372;8.166;2023-09-19T03:40:11;21.20;57.20
14101;DHT22;7127;49.372;8.166;2023-09-19T03:42:38;21.20;57.30
14101;DHT22;7127;49.372;8.166;2023-09-19T03:45:07;21.20;57.20
14101;DHT22;7127;49.372;8.166;2023-09-19T03:47:37;21.20;57.10
14101;DHT22;7127;49.372;8.166;2023-09-19T03:50:05;21.20;57.20
14101;DHT22;7127;49.372;8.166;2023-09-19T03:52:33;21.20;57.20
14101;DHT22;7127;49.372;8.166;2023-09-19T03:55:00;21.20;57.20
14101;DHT22;7127;49.372;8.166;2023-09-19T03:57:30;21.10;57.00
14101;DHT22;7127;49.372;8.166;2023-09-19T03:59:56;21.10;57.00
14101;DHT22;7127;49.372;8.166;2023-09-19T04:02:25;21.10;57.10
14101;DHT22;7127;49.372;8.166;2023-09-19T04:04:52;21.10;57.10
14101;DHT22;7127;49.372;8.166;2023-09-19T04:07:19;21.10;57.10
14101;DHT22;7127;49.372;8.166;2023-09-19T04:09:47;21.10;57.10
14101;DHT22;7127;49.372;8.166;2023-09-19T04:12:14;21.00;57.10
14101;DHT22;7127;49.372;8.166;2023-09-19T04:14:42;21.00;57.10
14101;DHT22;7127;49.372;8.166;2023-09-19T04:17:09;21.00;57.20
14101;DHT22;7127;49.372;8.166;2023-09-19T04:19:37;21.00;57.20
14101;DHT22;7127;49.372;8.166;2023-09-19T04:22:04;21.00;57.20
14101;DHT22;7127;49.372;8.166;2023-09-19T04:24:31;21.00;57.10
14101;DHT22;7127;49.372;8.166;2023-09-19T04:26:59;21.00;57.10
14101;DHT22;7127;49.372;8.166;2023-09-19T04:29:26;20.90;57.00
14101;DHT22;7127;49.372;8.166;2023-09-19T04:31:55;21.00;57.00
14101;DHT22;7127;49.372;8.166;2023-09-19T04:34:23;21.00;57.00
14101;DHT22;7127;49.372;8.166;2023-09-19T04:36:51;21.00;56.90
14101;DHT22;7127;49.372;8.166;2023-09-19T04:39:18;21.00;57.00
14101;DHT22;7127;49.372;8.166;2023-09-19T04:41:46;20.90;56.90
14101;DHT22;7127;49.372;8.166;2023-09-19T04:44:13;20.90;56.90
14101;DHT22;7127;49.372;8.166;2023-09-19T04:46:41;20.90;56.90
14101;DHT22;7127;49.372;8.166;2023-09-19T04:49:07;20.90;56.80
14101;DHT22;7127;49.372;8.166;2023-09-19T04:51:34;20.90;56.80
14101;DHT22;7127;49.372;8.166;2023-09-19T04:54:03;20.90;56.70
14101;DHT22;7127;49.372;8.166;2023-09-19T04:56:30;21.00;56.80
14101;DHT22;7127;49.372;8.166;2023-09-19T04:58:57;20.90;56.80
14101;DHT22;7127;49.372;8.166;2023-09-19T05:01:24;20.90;56.90
14101;DHT22;7127;49.372;8.166;2023-09-19T05:03:51;20.90;56.90
14101;DHT22;7127;49.372;8.166;2023-09-19T05:06:18;20.90;56.80
14101;DHT22;7127;49.372;8.166;2023-09-19T05:08:45;20.90;56.90
14101;DHT22;7127;49.372;8.166;2023-09-19T05:11:14;20.90;56.90
14101;DHT22;7127;49.372;8.166;2023-09-19T05:13:40;20.90;56.90
14101;DHT22;7127;49.372;8.166;2023-09-19T05:16:08;20.90;56.90
14101;DHT22;7127;49.372;8.166;2023-09-19T05:18:35;20.90;56.90
14101;DHT22;7127;49.372;8.166;2023-09-19T05:21:02;20.90;56.90
14101;DHT22;7127;49.372;8.166;2023-09-19T05:23:29;20.90;56.90
14101;DHT22;7127;49.372;8.166;2023-09-19T05:25:57;20.90;56.90
14101;DHT22;7127;49.372;8.166;2023-09-19T05:28:26;20.90;56.90
14101;DHT22;7127;49.372;8.166;2023-09-19T05:30:53;20.90;57.00
14101;DHT22;7127;49.372;8.166;2023-09-19T05:33:20;20.90;56.90
14101;DHT22;7127;49.372;8.166;2023-09-19T05:35:48;20.90;57.00
14101;DHT22;7127;49.372;8.166;2023-09-19T05:38:15;20.90;57.00
14101;DHT22;7127;49.372;8.166;2023-09-19T05:40:45;20.90;57.00
14101;DHT22;7127;49.372;8.166;2023-09-19T05:43:11;20.90;56.90
14101;DHT22;7127;49.372;8.166;2023-09-19T05:45:41;21.00;57.00
14101;DHT22;7127;49.372;8.166;2023-09-19T05:48:09;21.00;57.00
14101;DHT22;7127;49.372;8.166;2023-09-19T05:50:37;21.00;57.00
14101;DHT22;7127;49.372;8.166;2023-09-19T05:53:03;21.00;57.00
14101;DHT22;7127;49.372;8.166;2023-09-19T05:55:30;21.00;56.90
14101;DHT22;7127;49.372;8.166;2023-09-19T05:57:57;21.00;56.90
14101;DHT22;7127;49.372;8.166;2023-09-19T06:00:24;21.00;56.90
14101;DHT22;7127;49.372;8.166;2023-09-19T06:02:55;21.00;57.00
14101;DHT22;7127;49.372;8.166;2023-09-19T06:05:23;21.00;57.10
14101;DHT22;7127;49.372;8.166;2023-09-19T06:07:50;21.10;57.20
14101;DHT22;7127;49.372;8.166;2023-09-19T06:10:18;21.10;57.10
14101;DHT22;7127;49.372;8.166;2023-09-19T06:12:46;21.10;57.10
14101;DHT22;7127;49.372;8.166;2023-09-19T06:15:14;21.10;57.10
14101;DHT22;7127;49.372;8.166;2023-09-19T06:17:42;21.30;57.30
14101;DHT22;7127;49.372;8.166;2023-09-19T06:20:11;21.20;57.20
14101;DHT22;7127;49.372;8.166;2023-09-19T06:22:41;21.30;57.20
14101;DHT22;7127;49.372;8.166;2023-09-19T06:25:08;21.30;57.20
14101;DHT22;7127;49.372;8.166;2023-09-19T06:27:37;21.30;57.10
14101;DHT22;7127;49.372;8.166;2023-09-19T06:30:05;21.30;56.90
14101;DHT22;7127;49.372;8.166;2023-09-19T06:32:33;21.40;56.90
14101;DHT22;7127;49.372;8.166;2023-09-19T06:35:00;21.50;56.90
14101;DHT22;7127;49.372;8.166;2023-09-19T06:37:29;21.50;56.80
14101;DHT22;7127;49.372;8.166;2023-09-19T06:39:56;21.50;56.60
14101;DHT22;7127;49.372;8.166;2023-09-19T06:42:23;21.60;56.50
14101;DHT22;7127;49.372;8.166;2023-09-19T06:44:49;21.50;56.50
14101;DHT22;7127;49.372;8.166;2023-09-19T06:47:17;21.60;56.50
14101;DHT22;7127;49.372;8.166;2023-09-19T06:49:43;21.60;56.50
14101;DHT22;7127;49.372;8.166;2023-09-19T06:52:10;21.60;56.50
14101;DHT22;7127;49.372;8.166;2023-09-19T06:54:38;21.70;56.50
14101;DHT22;7127;49.372;8.166;2023-09-19T06:57:07;21.70;56.30
14101;DHT22;7127;49.372;8.166;2023-09-19T06:59:35;21.80;56.40
14101;DHT22;7127;49.372;8.166;2023-09-19T07:02:02;21.80;56.40
14101;DHT22;7127;49.372;8.166;2023-09-19T07:04:31;21.90;56.30
14101;DHT22;7127;49.372;8.166;2023-09-19T07:06:59;21.90;56.10
14101;DHT22;7127;49.372;8.166;2023-09-19T07:09:25;21.90;55.70
14101;DHT22;7127;49.372;8.166;2023-09-19T07:11:54;21.90;55.50
14101;DHT22;7127;49.372;8.166;2023-09-19T07:14:21;22.10;55.60
14101;DHT22;7127;49.372;8.166;2023-09-19T07:16:48;22.00;56.10
14101;DHT22;7127;49.372;8.166;2023-09-19T07:19:15;22.10;55.60
14101;DHT22;7127;49.372;8.166;2023-09-19T07:21:41;22.10;55.50
14101;DHT22;7127;49.372;8.166;2023-09-19T07:24:08;22.00;55.40
14101;DHT22;7127;49.372;8.166;2023-09-19T07:26:35;22.20;55.40
14101;DHT22;7127;49.372;8.166;2023-09-19T07:29:03;22.20;55.10
14101;DHT22;7127;49.372;8.166;2023-09-19T07:31:32;22.30;55.00
14101;DHT22;7127;49.372;8.166;2023-09-19T07:33:59;22.30;54.60
14101;DHT22;7127;49.372;8.166;2023-09-19T07:36:25;22.40;54.70
14101;DHT22;7127;49.372;8.166;2023-09-19T07:38:55;22.50;54.60
14101;DHT22;7127;49.372;8.166;2023-09-19T07:41:23;22.40;54.40
14101;DHT22;7127;49.372;8.166;2023-09-19T07:43:50;22.50;54.40
14101;DHT22;7127;49.372;8.166;2023-09-19T07:46:19;22.50;54.40
14101;DHT22;7127;49.372;8.166;2023-09-19T07:48:46;22.50;54.30
14101;DHT22;7127;49.372;8.166;2023-09-19T07:51:14;22.60;54.30
14101;DHT22;7127;49.372;8.166;2023-09-19T07:53:41;22.60;54.20
14101;DHT22;7127;49.372;8.166;2023-09-19T07:56:09;22.60;54.10
14101;DHT22;7127;49.372;8.166;2023-09-19T07:58:39;22.70;54.10
14101;DHT22;7127;49.372;8.166;2023-09-19T08:01:10;22.80;53.70
14101;DHT22;7127;49.372;8.166;2023-09-19T08:03:40;22.80;53.80
14101;DHT22;7127;49.372;8.166;2023-09-19T08:06:09;22.90;53.80
14101;DHT22;7127;49.372;8.166;2023-09-19T08:08:36;22.90;53.40
14101;DHT22;7127;49.372;8.166;2023-09-19T08:11:04;22.90;53.50
14101;DHT22;7127;49.372;8.166;2023-09-19T08:13:36;23.10;53.40
14101;DHT22;7127;49.372;8.166;2023-09-19T08:16:03;23.00;53.90
14101;DHT22;7127;49.372;8.166;2023-09-19T08:18:30;23.10;53.40
14101;DHT22;7127;49.372;8.166;2023-09-19T08:20:58;23.10;52.90
14101;DHT22;7127;49.372;8.166;2023-09-19T08:23:27;23.10;53.00
14101;DHT22;7127;49.372;8.166;2023-09-19T08:25:56;23.20;53.10
14101;DHT22;7127;49.372;8.166;2023-09-19T08:28:23;23.20;53.00
14101;DHT22;7127;49.372;8.166;2023-09-19T08:30:50;23.30;53.00
14101;DHT22;7127;49.372;8.166;2023-09-19T08:33:18;23.30;52.80
14101;DHT22;7127;49.372;8.166;2023-09-19T08:35:45;23.30;52.70
14101;DHT22;7127;49.372;8.166;2023-09-19T08:38:13;23.30;52.60
14101;DHT22;7127;49.372;8.166;2023-09-19T08:40:41;23.30;52.50
14101;DHT22;7127;49.372;8.166;2023-09-19T08:43:09;23.30;52.50
14101;DHT22;7127;49.372;8.166;2023-09-19T08:45:36;23.40;52.70
14101;DHT22;7127;49.372;8.166;2023-09-19T08:48:16;23.50;52.70
14101;DHT22;7127;49.372;8.166;2023-09-19T08:50:47;23.40;52.40
14101;DHT22;7127;49.372;8.166;2023-09-19T08:53:26;23.50;52.60
14101;DHT22;7127;49.372;8.166;2023-09-19T08:55:55;23.50;52.00
14101;DHT22;7127;49.372;8.166;2023-09-19T08:58:26;23.50;52.10
14101;DHT22;7127;49.372;8.166;2023-09-19T09:00:56;23.70;52.00
14101;DHT22;7127;49.372;8.166;2023-09-19T09:03:27;23.60;51.90
14101;DHT22;7127;49.372;8.166;2023-09-19T09:05:57;23.60;51.90
14101;DHT22;7127;49.372;8.166;2023-09-19T09:08:26;23.60;51.60
14101;DHT22;7127;49.372;8.166;2023-09-19T09:10:54;23.80;51.50
14101;DHT22;7127;49.372;8.166;2023-09-19T09:13:21;23.80;51.60
14101;DHT22;7127;49.372;8.166;2023-09-19T09:15:50;23.70;51.60
14101;DHT22;7127;49.372;8.166;2023-09-19T09:18:17;23.80;51.40
14101;DHT22;7127;49.372;8.166;2023-09-19T09:20:44;23.80;51.20
14101;DHT22;7127;49.372;8.166;2023-09-19T09:23:11;23.80;51.00
14101;DHT22;7127;49.372;8.166;2023-09-19T09:25:51;23.80;51.10
14101;DHT22;7127;49.372;8.166;2023-09-19T09:28:24;23.90;50.80
14101;DHT22;7127;49.372;8.166;2023-09-19T09:30:53;23.90;51.20
14101;DHT22;7127;49.372;8.166;2023-09-19T09:33:21;24.00;51.40
14101;DHT22;7127;49.372;8.166;2023-09-19T09:35:52;24.00;51.40
14101;DHT22;7127;49.372;8.166;2023-09-19T09:38:22;24.20;51.20
14101;DHT22;7127;49.372;8.166;2023-09-19T09:40:56;24.10;51.30
14101;DHT22;7127;49.372;8.166;2023-09-19T09:43:32;24.20;50.90
14101;DHT22;7127;49.372;8.166;2023-09-19T09:46:13;24.20;50.70
14101;DHT22;7127;49.372;8.166;2023-09-19T09:48:58;24.40;50.50
14101;DHT22;7127;49.372;8.166;2023-09-19T09:51:42;24.40;50.90
14101;DHT22;7127;49.372;8.166;2023-09-19T09:54:13;24.50;50.80
14101;DHT22;7127;49.372;8.166;2023-09-19T09:56:56;24.60;50.60
14101;DHT22;7127;49.372;8.166;2023-09-19T09:59:44;24.60;49.80
14101;DHT22;7127;49.372;8.166;2023-09-19T10:02:13;24.70;49.70
14101;DHT22;7127;49.372;8.166;2023-09-19T10:04:41;24.70;49.90
14101;DHT22;7127;49.372;8.166;2023-09-19T10:07:25;24.70;49.30
14101;DHT22;7127;49.372;8.166;2023-09-19T10:09:53;24.80;49.10
14101;DHT22;7127;49.372;8.166;2023-09-19T10:12:27;24.80;49.20
14101;DHT22;7127;49.372;8.166;2023-09-19T10:14:56;24.70;49.20
14101;DHT22;7127;49.372;8.166;2023-09-19T10:17:24;24.90;49.60
14101;DHT22;7127;49.372;8.166;2023-09-19T10:19:55;24.80;49.50
14101;DHT22;7127;49.372;8.166;2023-09-19T10:22:23;24.80;49.30
14101;DHT22;7127;49.372;8.166;2023-09-19T10:24:53;24.90;48.90
14101;DHT22;7127;49.372;8.166;2023-09-19T10:27:21;24.90;48.70
14101;DHT22;7127;49.372;8.166;2023-09-19T10:29:54;25.00;48.70
14101;DHT22;7127;49.372;8.166;2023-09-19T10:32:22;25.00;48.60
14101;DHT22;7127;49.372;8.166;2023-09-19T10:34:50;25.10;48.60
14101;DHT22;7127;49.372;8.166;2023-09-19T10:37:21;25.10;48.50
14101;DHT22;7127;49.372;8.166;2023-09-19T10:39:52;25.00;48.20
14101;DHT22;7127;49.372;8.166;2023-09-19T10:42:23;25.10;48.10
14101;DHT22;7127;49.372;8.166;2023-09-19T10:44:58;25.30;47.50
14101;DHT22;7127;49.372;8.166;2023-09-19T10:47:26;25.10;47.10
14101;DHT22;7127;49.372;8.166;2023-09-19T10:49:53;25.20;47.40
14101;DHT22;7127;49.372;8.166;2023-09-19T10:52:22;25.10;47.10
14101;DHT22;7127;49.372;8.166;2023-09-19T10:54:52;25.20;46.70
14101;DHT22;7127;49.372;8.166;2023-09-19T10:57:21;25.20;47.00
14101;DHT22;7127;49.372;8.166;2023-09-19T11:00:04;25.10;46.90
14101;DHT22;7127;49.372;8.166;2023-09-19T11:03:18;25.10;46.60
14101;DHT22;7127;49.372;8.166;2023-09-19T11:06:01;25.00;46.70
14101;DHT22;7127;49.372;8.166;2023-09-19T11:08:30;24.90;46.40
14101;DHT22;7127;49.372;8.166;2023-09-19T11:10:59;25.00;46.80
14101;DHT22;7127;49.372;8.166;2023-09-19T11:13:29;25.00;46.80
14101;DHT22;7127;49.372;8.166;2023-09-19T11:16:04;25.00;46.40
14101;DHT22;7127;49.372;8.166;2023-09-19T11:18:53;25.00;46.30
14101;DHT22;7127;49.372;8.166;2023-09-19T11:21:40;24.90;44.70
14101;DHT22;7127;49.372;8.166;2023-09-19T11:24:29;24.90;46.10
14101;DHT22;7127;49.372;8.166;2023-09-19T11:27:11;24.90;46.10
14101;DHT22;7127;49.372;8.166;2023-09-19T11:29:39;24.90;46.10
14101;DHT22;7127;49.372;8.166;2023-09-19T11:32:08;24.80;46.10
14101;DHT22;7127;49.372;8.166;2023-09-19T11:34:40;24.80;46.00
14101;DHT22;7127;49.372;8.166;2023-09-19T11:40:35;24.80;46.20
14101;DHT22;7127;49.372;8.166;2023-09-19T11:43:29;24.80;46.90
14101;DHT22;7127;49.372;8.166;2023-09-19T11:46:03;24.90;46.10
14101;DHT22;7127;49.372;8.166;2023-09-19T11:48:32;25.00;46.50
14101;DHT22;7127;49.372;8.166;2023-09-19T11:51:00;25.00;46.50
14101;DHT22;7127;49.372;8.166;2023-09-19T11:53:33;25.00;46.50
14101;DHT22;7127;49.372;8.166;2023-09-19T11:56:02;25.10;46.60
14101;DHT22;7127;49.372;8.166;2023-09-19T11:58:32;25.20;46.60
14101;DHT22;7127;49.372;8.166;2023-09-19T12:01:00;25.30;46.60
14101;DHT22;7127;49.372;8.166;2023-09-19T12:03:36;25.40;46.50
14101;DHT22;7127;49.372;8.166;2023-09-19T12:06:11;25.50;46.50
14101;DHT22;7127;49.372;8.166;2023-09-19T12:08:40;25.60;46.50
14101;DHT22;7127;49.372;8.166;2023-09-19T12:11:12;25.60;46.40
14101;DHT22;7127;49.372;8.166;2023-09-19T12:13:42;25.60;46.70
14101;DHT22;7127;49.372;8.166;2023-09-19T12:16:12;25.90;45.70
14101;DHT22;7127;49.372;8.166;2023-09-19T12:18:42;25.90;45.70
14101;DHT22;7127;49.372;8.166;2023-09-19T12:21:22;26.00;45.90
14101;DHT22;7127;49.372;8.166;2023-09-19T12:24:03;25.90;45.30
14101;DHT22;7127;49.372;8.166;2023-09-19T12:26:38;26.20;45.90
14101;DHT22;7127;49.372;8.166;2023-09-19T12:29:11;26.10;45.30
14101;DHT22;7127;49.372;8.166;2023-09-19T12:31:48;26.10;45.60
14101;DHT22;7127;49.372;8.166;2023-09-19T12:34:19;26.10;45.60
14101;DHT22;7127;49.372;8.166;2023-09-19T12:36:46;26.10;45.20
14101;DHT22;7127;49.372;8.166;2023-09-19T12:39:23;26.40;45.40
14101;DHT22;7127;49.372;8.166;2023-09-19T12:41:50;26.40;45.00
14101;DHT22;7127;49.372;8.166;2023-09-19T12:44:17;26.40;45.20
14101;DHT22;7127;49.372;8.166;2023-09-19T12:46:44;26.40;44.60
14101;DHT22;7127;49.372;8.166;2023-09-19T12:49:19;26.40;44.60
14101;DHT22;7127;49.372;8.166;2023-09-19T12:51:46;26.40;44.30
14101;DHT22;7127;49.372;8.166;2023-09-19T12:54:14;26.30;44.50
14101;DHT22;7127;49.372;8.166;2023-09-19T12:56:42;26.40;44.50
14101;DHT22;7127;49.372;8.166;2023-09-19T12:59:12;26.20;44.40
14101;DHT22;7127;49.372;8.166;2023-09-19T13:01:40;26.30;44.50
14101;DHT22;7127;49.372;8.166;2023-09-19T13:04:11;26.10;44.50
14101;DHT22;7127;49.372;8.166;2023-09-19T13:06:41;26.20;44.50
14101;DHT22;7127;49.372;8.166;2023-09-19T13:09:10;26.30;44.30
14101;DHT22;7127;49.372;8.166;2023-09-19T13:11:37;26.30;44.10
14101;DHT22;7127;49.372;8.166;2023-09-19T13:14:19;26.40;44.30
14101;DHT22;7127;49.372;8.166;2023-09-19T13:16:56;26.30;44.00
14101;DHT22;7127;49.372;8.166;2023-09-19T13:19:37;26.40;43.80
14101;DHT22;7127;49.372;8.166;2023-09-19T13:22:39;26.40;43.80
14101;DHT22;7127;49.372;8.166;2023-09-19T13:25:08;26.50;43.40
14101;DHT22;7127;49.372;8.166;2023-09-19T13:27:39;26.50;43.90
14101;DHT22;7127;49.372;8.166;2023-09-19T13:30:07;26.50;44.00
14101;DHT22;7127;49.372;8.166;2023-09-19T13:32:34;26.60;44.10
14101;DHT22;7127;49.372;8.166;2023-09-19T13:35:01;26.60;44.20
14101;DHT22;7127;49.372;8.166;2023-09-19T13:37:29;26.70;44.10
14101;DHT22;7127;49.372;8.166;2023-09-19T13:39:56;26.70;44.10
14101;DHT22;7127;49.372;8.166;2023-09-19T13:42:24;26.70;44.20
14101;DHT22;7127;49.372;8.166;2023-09-19T13:44:55;26.80;44.20
14101;DHT22;7127;49.372;8.166;2023-09-19T13:47:22;26.90;44.20
14101;DHT22;7127;49.372;8.166;2023-09-19T13:49:52;26.80;44.20
14101;DHT22;7127;49.372;8.166;2023-09-19T13:52:19;26.90;44.10
14101;DHT22;7127;49.372;8.166;2023-09-19T13:54:47;26.90;44.10
14101;DHT22;7127;49.372;8.166;2023-09-19T13:57:14;27.10;44.20
14101;DHT22;7127;49.372;8.166;2023-09-19T13:59:42;27.00;44.10
14101;DHT22;7127;49.372;8.166;2023-09-19T14:02:08;27.10;43.90
14101;DHT22;7127;49.372;8.166;2023-09-19T14:04:35;27.10;43.80
14101;DHT22;7127;49.372;8.166;2023-09-19T14:07:02;27.10;43.60
14101;DHT22;7127;49.372;8.166;2023-09-19T14:09:29;27.10;43.50
14101;DHT22;7127;49.372;8.166;2023-09-19T14:11:58;27.10;43.40
14101;DHT22;7127;49.372;8.166;2023-09-19T14:14:24;27.10;43.00
14101;DHT22;7127;49.372;8.166;2023-09-19T14:16:51;27.10;43.10
14101;DHT22;7127;49.372;8.166;2023-09-19T14:19:18;27.00;42.90
14101;DHT22;7127;49.372;8.166;2023-09-19T14:21:45;27.00;43.00
14101;DHT22;7127;49.372;8.166;2023-09-19T14:24:16;27.00;43.20
14101;DHT22;7127;49.372;8.166;2023-09-19T14:26:43;26.90;43.10
14101;DHT22;7127;49.372;8.166;2023-09-19T14:29:12;27.00;43.30
14101;DHT22;7127;49.372;8.166;2023-09-19T14:31:38;27.00;43.00
14101;DHT22;7127;49.372;8.166;2023-09-19T14:34:06;27.00;43.10
14101;DHT22;7127;49.372;8.166;2023-09-19T14:36:35;27.00;43.30
14101;DHT22;7127;49.372;8.166;2023-09-19T14:39:02;27.00;43.30
14101;DHT22;7127;49.372;8.166;2023-09-19T14:41:29;27.10;43.40
14101;DHT22;7127;49.372;8.166;2023-09-19T14:43:56;27.10;43.20
14101;DHT22;7127;49.372;8.166;2023-09-19T14:46:24;27.10;43.20
14101;DHT22;7127;49.372;8.166;2023-09-19T14:48:51;27.10;43.10
14101;DHT22;7127;49.372;8.166;2023-09-19T14:51:18;27.10;42.80
14101;DHT22;7127;49.372;8.166;2023-09-19T14:53:45;27.10;42.80
14101;DHT22;7127;49.372;8.166;2023-09-19T14:56:12;27.00;42.80
14101;DHT22;7127;49.372;8.166;2023-09-19T14:58:43;27.00;42.80
14101;DHT22;7127;49.372;8.166;2023-09-19T15:01:11;27.10;43.00
14101;DHT22;7127;49.372;8.166;2023-09-19T15:03:41;26.90;42.90
14101;DHT22;7127;49.372;8.166;2023-09-19T15:06:10;26.90;42.70
14101;DHT22;7127;49.372;8.166;2023-09-19T15:08:40;26.90;42.70
14101;DHT22;7127;49.372;8.166;2023-09-19T15:11:11;26.90;42.90
14101;DHT22;7127;49.372;8.166;2023-09-19T15:13:38;26.80;43.00
14101;DHT22;7127;49.372;8.166;2023-09-19T15:16:07;26.70;43.00
14101;DHT22;7127;49.372;8.166;2023-09-19T15:18:35;26.80;43.10
14101;DHT22;7127;49.372;8.166;2023-09-19T15:21:04;26.70;43.30
14101;DHT22;7127;49.372;8.166;2023-09-19T15:23:31;26.60;43.30
14101;DHT22;7127;49.372;8.166;2023-09-19T15:25:59;26.60;43.30
14101;DHT22;7127;49.372;8.166;2023-09-19T15:28:26;26.60;43.30
14101;DHT22;7127;49.372;8.166;2023-09-19T15:30:58;26.60;43.40
14101;DHT22;7127;49.372;8.166;2023-09-19T15:33:25;26.50;43.40
14101;DHT22;7127;49.372;8.166;2023-09-19T15:35:52;26.50;43.40
14101;DHT22;7127;49.372;8.166;2023-09-19T15:38:21;26.50;43.40
14101;DHT22;7127;49.372;8.166;2023-09-19T15:40:47;26.50;43.50
14101;DHT22;7127;49.372;8.166;2023-09-19T15:43:14;26.40;43.50
14101;DHT22;7127;49.372;8.166;2023-09-19T15:45:42;26.50;43.60
14101;DHT22;7127;49.372;8.166;2023-09-19T15:48:09;26.40;43.50
14101;DHT22;7127;49.372;8.166;2023-09-19T15:50:36;26.40;43.50
14101;DHT22;7127;49.372;8.166;2023-09-19T15:53:03;26.30;43.60
14101;DHT22;7127;49.372;8.166;2023-09-19T15:55:31;26.40;43.80
14101;DHT22;7127;49.372;8.166;2023-09-19T15:57:57;26.40;43.90
14101;DHT22;7127;49.372;8.166;2023-09-19T16:00:24;26.40;43.80
14101;DHT22;7127;49.372;8.166;2023-09-19T16:02:51;26.40;43.80